createdAt,value
2023-02-05T00:00:19.368Z,9.87
2023-02-05T00:02:45.829Z,9.47
2023-02-05T00:05:12.251Z,10.80
2023-02-05T00:07:38.663Z,15.07
2023-02-05T00:10:05.927Z,9.30
2023-02-05T00:12:32.602Z,10.20
2023-02-05T00:14:59.022Z,10.03
2023-02-05T00:17:25.450Z,10.20
2023-02-05T00:19:51.895Z,13.63
2023-02-05T00:22:18.282Z,14.03
2023-02-05T00:24:44.724Z,14.73
2023-02-05T00:27:11.371Z,15.53
2023-02-05T00:29:38.036Z,20.53
2023-02-05T00:32:04.662Z,18.10
2023-02-05T00:34:31.154Z,14.40
2023-02-05T00:36:57.813Z,19.90
2023-02-05T00:39:24.253Z,15.97
2023-02-05T00:41:50.956Z,14.67
2023-02-05T00:44:17.552Z,15.47
2023-02-05T00:46:44.176Z,12.60
2023-02-05T00:49:10.770Z,13.63
2023-02-05T00:51:37.197Z,16.97
2023-02-05T00:54:03.701Z,12.33
2023-02-05T00:56:30.188Z,17.70
2023-02-05T00:58:57.608Z,14.57
2023-02-05T01:01:24.148Z,15.77
2023-02-05T01:03:50.683Z,18.67
2023-02-05T01:06:17.226Z,23.43
2023-02-05T01:08:44.097Z,18.70
2023-02-05T01:11:11.345Z,17.33
2023-02-05T01:13:39.078Z,17.30
2023-02-05T01:16:06.362Z,14.10
2023-02-05T01:18:33.150Z,12.10
2023-02-05T01:20:59.572Z,14.40
2023-02-05T01:23:26.175Z,14.50
2023-02-05T01:25:52.689Z,19.40
2023-02-05T01:28:19.250Z,13.87
2023-02-05T01:30:50.585Z,16.87
2023-02-05T01:33:18.220Z,16.40
2023-02-05T01:35:45.561Z,12.97
2023-02-05T01:38:13.098Z,18.40
2023-02-05T01:40:40.451Z,14.63
2023-02-05T01:43:14.601Z,15.70
2023-02-05T01:45:54.863Z,20.00
2023-02-05T01:48:27.806Z,14.00
2023-02-05T01:50:58.752Z,13.90
2023-02-05T01:53:29.744Z,14.23
2023-02-05T01:56:00.831Z,17.37
2023-02-05T01:58:31.843Z,13.57
2023-02-05T02:00:58.575Z,14.60
2023-02-05T02:03:28.283Z,12.10
2023-02-05T02:05:58.492Z,12.97
2023-02-05T02:08:25.318Z,16.60
2023-02-05T02:10:53.518Z,14.90
2023-02-05T02:13:22.493Z,14.00
2023-02-05T02:15:50.644Z,18.60
2023-02-05T02:18:27.065Z,14.10
2023-02-05T02:21:05.733Z,19.50
2023-02-05T02:24:09.324Z,14.03
2023-02-05T02:26:58.550Z,12.00
2023-02-05T02:29:53.701Z,13.47
2023-02-05T02:32:36.962Z,17.70
2023-02-05T02:35:28.390Z,15.03
2023-02-05T02:38:18.619Z,14.90
2023-02-05T02:40:53.860Z,17.10
2023-02-05T02:43:32.256Z,14.27
2023-02-05T02:46:04.506Z,15.63
2023-02-05T02:48:35.173Z,11.27
2023-02-05T02:51:03.422Z,12.67
2023-02-05T02:53:35.915Z,13.87
2023-02-05T02:56:04.817Z,15.63
2023-02-05T02:58:47.279Z,12.97
2023-02-05T03:01:17.453Z,18.33
2023-02-05T03:03:51.019Z,12.80
2023-02-05T03:06:19.460Z,12.80
2023-02-05T03:09:00.234Z,12.13
2023-02-05T03:11:27.572Z,14.33
2023-02-05T03:13:55.955Z,13.90
2023-02-05T03:16:26.788Z,13.43
2023-02-05T03:18:54.787Z,16.20
2023-02-05T03:21:28.084Z,12.13
2023-02-05T03:23:54.889Z,13.67
2023-02-05T03:26:30.410Z,15.07
2023-02-05T03:29:11.484Z,12.03
2023-02-05T03:31:57.437Z,14.30
2023-02-05T03:34:52.706Z,16.00
2023-02-05T03:37:49.297Z,11.97
2023-02-05T03:40:32.011Z,13.77
2023-02-05T03:43:21.201Z,11.83
2023-02-05T03:46:16.061Z,11.67
2023-02-05T03:48:57.640Z,11.23
2023-02-05T03:51:37.871Z,11.50
2023-02-05T03:54:21.546Z,11.73
2023-02-05T03:57:05.600Z,12.40
2023-02-05T03:59:36.835Z,12.67
2023-02-05T04:02:04.818Z,11.10
2023-02-05T04:04:35.853Z,13.00
2023-02-05T04:07:02.873Z,14.77
2023-02-05T04:09:29.771Z,11.30
2023-02-05T04:11:56.513Z,12.33
2023-02-05T04:14:23.534Z,15.90
2023-02-05T04:16:51.073Z,10.10
2023-02-05T04:19:19.838Z,9.97
2023-02-05T04:21:46.723Z,13.20
2023-02-05T04:24:13.688Z,13.00
2023-02-05T04:26:40.467Z,18.63
2023-02-05T04:29:07.852Z,12.27
2023-02-05T04:31:40.908Z,13.80
2023-02-05T04:34:07.644Z,12.50
2023-02-05T04:36:34.463Z,13.70
2023-02-05T04:39:01.575Z,12.60
2023-02-05T04:41:28.928Z,13.60
2023-02-05T04:43:55.324Z,23.10
2023-02-05T04:46:21.791Z,16.70
2023-02-05T04:48:48.283Z,14.90
2023-02-05T04:51:15.242Z,13.47
2023-02-05T04:53:41.711Z,17.07
2023-02-05T04:56:16.410Z,16.53
2023-02-05T04:58:43.271Z,18.23
2023-02-05T05:01:15.762Z,17.27
2023-02-05T05:03:42.909Z,16.73
2023-02-05T05:06:09.860Z,15.60
2023-02-05T05:08:36.708Z,16.57
2023-02-05T05:11:12.040Z,13.47
2023-02-05T05:13:38.868Z,15.60
2023-02-05T05:16:06.183Z,15.07
2023-02-05T05:18:32.793Z,13.83
2023-02-05T05:20:59.381Z,15.17
2023-02-05T05:23:25.783Z,16.00
2023-02-05T05:25:52.260Z,18.13
2023-02-05T05:28:19.073Z,12.40
2023-02-05T05:30:46.891Z,19.30
2023-02-05T05:33:13.900Z,18.07
2023-02-05T05:35:40.314Z,16.73
2023-02-05T05:38:07.249Z,17.93
2023-02-05T05:40:52.376Z,17.70
2023-02-05T05:43:39.384Z,9.30
2023-02-05T05:46:07.332Z,20.93
2023-02-05T05:48:34.251Z,14.40
2023-02-05T05:51:00.988Z,19.43
2023-02-05T05:53:27.465Z,16.87
2023-02-05T05:55:53.934Z,13.30
2023-02-05T05:58:20.405Z,16.20
2023-02-05T06:00:46.814Z,14.33
2023-02-05T06:03:13.566Z,12.40
2023-02-05T06:05:40.210Z,14.90
2023-02-05T06:08:06.845Z,11.70
2023-02-05T06:10:33.525Z,13.10
2023-02-05T06:13:00.664Z,14.00
2023-02-05T06:15:27.314Z,14.93
2023-02-05T06:17:53.809Z,13.27
2023-02-05T06:20:20.658Z,17.60
2023-02-05T06:22:47.086Z,17.87
2023-02-05T06:25:13.762Z,16.07
2023-02-05T06:27:40.320Z,15.03
2023-02-05T06:30:07.208Z,18.93
2023-02-05T06:32:33.621Z,15.40
2023-02-05T06:35:00.089Z,15.70
2023-02-05T06:37:43.990Z,15.47
2023-02-05T06:40:13.258Z,18.23
2023-02-05T06:42:39.764Z,14.97
2023-02-05T06:45:06.936Z,14.93
2023-02-05T06:47:33.346Z,15.30
2023-02-05T06:49:59.774Z,11.93
2023-02-05T06:52:26.180Z,18.13
2023-02-05T06:54:52.586Z,16.87
2023-02-05T06:57:19.014Z,14.10
2023-02-05T06:59:45.395Z,13.93
2023-02-05T07:02:15.178Z,15.20
2023-02-05T07:04:41.809Z,18.20
2023-02-05T07:07:08.327Z,15.17
2023-02-05T07:09:34.955Z,13.97
2023-02-05T07:12:01.383Z,12.77
2023-02-05T07:14:28.073Z,16.37
2023-02-05T07:16:54.509Z,20.33
2023-02-05T07:19:20.976Z,26.33
2023-02-05T07:21:47.365Z,15.30
2023-02-05T07:24:14.529Z,15.63
2023-02-05T07:26:42.861Z,15.70
2023-02-05T07:29:09.380Z,17.73
2023-02-05T07:31:36.342Z,18.53
2023-02-05T07:34:03.308Z,18.40
2023-02-05T07:36:29.998Z,14.20
2023-02-05T07:38:56.490Z,20.53
2023-02-05T07:41:22.996Z,15.73
2023-02-05T07:43:53.322Z,19.40
2023-02-05T07:46:21.622Z,15.67
2023-02-05T07:48:48.368Z,16.77
2023-02-05T07:51:20.936Z,18.53
2023-02-05T07:53:47.453Z,18.90
2023-02-05T07:56:15.278Z,16.83
2023-02-05T07:58:42.343Z,15.47
2023-02-05T08:01:09.258Z,15.70
2023-02-05T08:03:35.715Z,14.87
2023-02-05T08:06:06.830Z,9.27
2023-02-05T08:08:33.725Z,10.73
2023-02-05T08:11:02.605Z,7.90
2023-02-05T08:13:29.556Z,12.80
2023-02-05T08:15:56.146Z,9.93
2023-02-05T08:18:22.722Z,21.23
2023-02-05T08:20:53.223Z,10.13
2023-02-05T08:23:20.383Z,10.07
2023-02-05T08:25:47.351Z,10.87
2023-02-05T08:28:14.575Z,8.60
2023-02-05T08:30:41.170Z,9.13
2023-02-05T08:33:07.651Z,10.90
2023-02-05T08:35:34.341Z,8.80
2023-02-05T08:38:01.015Z,7.20
2023-02-05T08:40:27.698Z,9.37
2023-02-05T08:42:57.111Z,11.07
2023-02-05T08:45:24.766Z,11.00
2023-02-05T08:47:51.366Z,8.00
2023-02-05T08:50:19.165Z,10.37
2023-02-05T08:52:45.623Z,10.07
2023-02-05T08:55:12.195Z,8.67
2023-02-05T08:57:38.633Z,13.10
2023-02-05T09:00:06.401Z,10.87
2023-02-05T09:02:32.880Z,6.23
2023-02-05T09:05:08.470Z,8.27
2023-02-05T09:07:36.514Z,6.67
2023-02-05T09:10:03.193Z,6.90
2023-02-05T09:12:29.683Z,9.30
2023-02-05T09:14:56.199Z,7.53
2023-02-05T09:17:22.625Z,7.40
2023-02-05T09:19:49.096Z,8.90
2023-02-05T09:22:15.539Z,5.50
2023-02-05T09:24:41.947Z,5.43
2023-02-05T09:27:08.365Z,6.30
2023-02-05T09:29:34.798Z,8.00
2023-02-05T09:32:01.221Z,8.77
2023-02-05T09:34:27.646Z,8.67
2023-02-05T09:36:54.071Z,7.80
2023-02-05T09:39:52.337Z,10.70
2023-02-05T09:42:28.785Z,7.07
2023-02-05T09:45:26.015Z,9.73
2023-02-05T09:48:28.237Z,7.40
2023-02-05T09:50:58.507Z,7.97
2023-02-05T09:53:28.804Z,7.10
2023-02-05T09:55:55.236Z,9.00
2023-02-05T09:58:26.276Z,8.43
2023-02-05T10:01:12.438Z,8.53
2023-02-05T10:03:49.667Z,8.23
2023-02-05T10:06:35.020Z,7.87
2023-02-05T10:09:11.862Z,9.40
2023-02-05T10:12:05.389Z,7.13
2023-02-05T10:14:52.468Z,10.80
2023-02-05T10:17:55.870Z,6.93
2023-02-05T10:20:30.325Z,5.97
2023-02-05T10:24:01.932Z,6.20
2023-02-05T10:27:09.883Z,6.67
2023-02-05T10:29:48.474Z,6.20
2023-02-05T10:32:19.939Z,5.47
2023-02-05T10:34:55.370Z,8.03
2023-02-05T10:37:30.310Z,5.40
2023-02-05T10:39:58.044Z,10.60
2023-02-05T10:42:29.142Z,6.80
2023-02-05T10:45:29.490Z,5.00
2023-02-05T10:48:30.030Z,5.70
2023-02-05T10:51:09.258Z,4.27
2023-02-05T10:53:36.859Z,5.37
2023-02-05T10:56:04.942Z,6.17
2023-02-05T10:58:43.337Z,7.53
2023-02-05T11:01:17.501Z,5.40
2023-02-05T11:03:55.084Z,9.63
2023-02-05T11:06:25.060Z,9.50
2023-02-05T11:08:51.707Z,4.27
2023-02-05T11:11:23.744Z,7.40
2023-02-05T11:14:04.391Z,9.50
2023-02-05T11:16:36.866Z,9.13
2023-02-05T11:19:04.186Z,7.07
2023-02-05T11:21:51.148Z,6.77
2023-02-05T11:24:36.023Z,5.97
2023-02-05T11:27:29.707Z,6.90
2023-02-05T11:30:19.092Z,9.30
2023-02-05T11:32:45.793Z,3.77
2023-02-05T11:35:25.417Z,10.30
2023-02-05T11:38:31.856Z,10.40
2023-02-05T11:41:02.491Z,11.70
2023-02-05T11:43:34.442Z,8.53
2023-02-05T11:46:03.917Z,8.23
2023-02-05T11:48:41.071Z,4.13
2023-02-05T11:51:47.805Z,5.30
2023-02-05T11:54:27.065Z,5.60
2023-02-05T11:57:14.518Z,8.43
2023-02-05T11:59:40.952Z,5.97
2023-02-05T12:02:25.721Z,5.40
2023-02-05T12:04:59.235Z,5.17
2023-02-05T12:07:28.757Z,8.97
2023-02-05T12:09:59.338Z,11.37
2023-02-05T12:12:36.941Z,6.60
2023-02-05T12:15:19.906Z,12.07
2023-02-05T12:17:56.301Z,6.73
2023-02-05T12:20:35.593Z,8.10
2023-02-05T12:23:18.347Z,6.07
2023-02-05T12:26:12.779Z,9.03
2023-02-05T12:28:50.472Z,8.53
2023-02-05T12:31:52.571Z,8.83
2023-02-05T12:34:48.249Z,10.13
2023-02-05T12:37:54.078Z,6.80
2023-02-05T12:40:37.630Z,9.67
2023-02-05T12:43:31.487Z,8.60
2023-02-05T12:45:57.947Z,8.67
2023-02-05T12:48:40.319Z,7.03
2023-02-05T12:51:12.831Z,7.10
2023-02-05T12:54:26.968Z,7.60
2023-02-05T12:57:02.179Z,10.07
2023-02-05T12:59:46.138Z,6.73
2023-02-05T13:02:33.805Z,8.80
2023-02-05T13:05:30.082Z,7.40
2023-02-05T13:08:15.795Z,18.50
2023-02-05T13:10:59.432Z,13.70
2023-02-05T13:13:38.172Z,9.30
2023-02-05T13:16:15.318Z,12.00
2023-02-05T13:18:47.499Z,14.40
2023-02-05T13:21:36.000Z,6.97
2023-02-05T13:24:41.870Z,7.40
2023-02-05T13:27:43.431Z,10.40
2023-02-05T13:30:17.114Z,10.30
2023-02-05T13:32:48.271Z,8.33
2023-02-05T13:35:15.089Z,7.40
2023-02-05T13:37:56.399Z,11.93
2023-02-05T13:40:53.504Z,17.93
2023-02-05T13:43:39.348Z,15.23
2023-02-05T13:47:00.439Z,11.13
2023-02-05T13:49:49.557Z,13.67
2023-02-05T13:53:05.446Z,15.50
2023-02-05T13:55:46.862Z,7.23
2023-02-05T13:58:36.638Z,8.53
2023-02-05T14:01:06.844Z,12.03
2023-02-05T14:03:39.416Z,11.30
2023-02-05T14:06:36.844Z,6.33
2023-02-05T14:09:07.435Z,15.57
2023-02-05T14:11:52.075Z,18.30
2023-02-05T14:14:26.085Z,7.83
2023-02-05T14:16:54.870Z,12.77
2023-02-05T14:19:45.817Z,10.47
2023-02-05T14:22:34.867Z,13.73
2023-02-05T14:25:01.459Z,13.23
2023-02-05T14:27:31.406Z,13.80
2023-02-05T14:30:29.899Z,13.60
2023-02-05T14:33:00.004Z,11.90
2023-02-05T14:35:32.446Z,12.03
2023-02-05T14:38:02.582Z,14.73
2023-02-05T14:40:35.819Z,9.00
2023-02-05T14:43:15.945Z,9.57
2023-02-05T14:45:49.133Z,12.70
2023-02-05T14:48:28.796Z,11.07
2023-02-05T14:51:21.591Z,12.67
2023-02-05T14:54:06.134Z,17.10
2023-02-05T14:56:46.730Z,13.27
2023-02-05T14:59:29.072Z,11.57
2023-02-05T15:01:57.514Z,23.53
2023-02-05T15:04:49.422Z,13.00
2023-02-05T15:07:24.485Z,15.50
2023-02-05T15:09:59.430Z,12.90
2023-02-05T15:12:32.128Z,9.53
2023-02-05T15:14:59.246Z,12.80
2023-02-05T15:17:28.647Z,13.73
2023-02-05T15:20:20.805Z,10.80
2023-02-05T15:23:04.289Z,18.60
2023-02-05T15:25:41.670Z,13.33
2023-02-05T15:28:20.228Z,15.37
2023-02-05T15:31:11.740Z,13.93
2023-02-05T15:34:04.638Z,18.30
2023-02-05T15:36:56.624Z,9.23
2023-02-05T15:39:34.986Z,14.60
2023-02-05T15:42:03.960Z,14.07
2023-02-05T15:44:36.158Z,10.53
2023-02-05T15:47:07.786Z,9.93
2023-02-05T15:49:43.139Z,10.97
2023-02-05T15:52:17.849Z,15.70
2023-02-05T15:54:44.280Z,17.97
2023-02-05T15:57:22.880Z,18.27
2023-02-05T15:59:51.280Z,18.93
2023-02-05T16:02:24.499Z,11.87
2023-02-05T16:04:57.552Z,9.90
2023-02-05T16:07:26.026Z,14.07
2023-02-05T16:09:56.123Z,22.27
2023-02-05T16:12:23.027Z,14.70
2023-02-05T16:15:06.388Z,20.10
2023-02-05T16:17:51.159Z,9.40
2023-02-05T16:20:34.274Z,18.73
2023-02-05T16:23:05.581Z,19.87
2023-02-05T16:25:34.644Z,20.20
2023-02-05T16:28:06.526Z,9.50
2023-02-05T16:30:44.490Z,19.60
2023-02-05T16:33:32.969Z,11.67
2023-02-05T16:36:01.973Z,20.73
2023-02-05T16:38:28.912Z,23.00
2023-02-05T16:40:58.712Z,18.00
2023-02-05T16:43:25.083Z,17.90
2023-02-05T16:46:21.072Z,21.47
2023-02-05T16:48:47.898Z,19.80
2023-02-05T16:51:36.389Z,26.27
2023-02-05T16:54:25.815Z,32.37
2023-02-05T16:57:01.261Z,22.23
2023-02-05T16:59:35.246Z,16.73
2023-02-05T17:02:03.410Z,23.60
2023-02-05T17:04:34.930Z,17.50
2023-02-05T17:07:06.901Z,18.13
2023-02-05T17:09:39.344Z,22.07
2023-02-05T17:12:35.217Z,26.90
2023-02-05T17:15:15.232Z,31.90
2023-02-05T17:17:50.312Z,30.30
2023-02-05T17:20:16.703Z,33.47
2023-02-05T17:23:07.180Z,30.97
2023-02-05T17:25:39.986Z,30.33
2023-02-05T17:28:13.167Z,19.93
2023-02-05T17:30:42.313Z,27.20
2023-02-05T17:33:09.905Z,30.17
2023-02-05T17:35:36.502Z,28.07
2023-02-05T17:38:02.968Z,30.60
2023-02-05T17:40:29.584Z,44.20
2023-02-05T17:42:55.988Z,26.10
2023-02-05T17:45:31.445Z,30.67
2023-02-05T17:47:57.885Z,31.93
2023-02-05T17:50:24.346Z,28.13
2023-02-05T17:52:52.180Z,28.20
2023-02-05T17:55:20.384Z,28.70
2023-02-05T17:57:46.839Z,18.50
2023-02-05T18:00:16.340Z,24.50
2023-02-05T18:02:42.755Z,24.30
2023-02-05T18:05:11.819Z,28.20
2023-02-05T18:07:40.551Z,23.00
2023-02-05T18:10:07.894Z,23.17
2023-02-05T18:12:34.426Z,24.30
2023-02-05T18:15:00.873Z,20.07
2023-02-05T18:17:27.349Z,26.23
2023-02-05T18:19:53.848Z,24.07
2023-02-05T18:22:21.406Z,19.90
2023-02-05T18:24:47.918Z,21.07
2023-02-05T18:27:14.443Z,22.93
2023-02-05T18:29:42.733Z,23.17
2023-02-05T18:32:10.151Z,22.30
2023-02-05T18:34:36.599Z,16.70
2023-02-05T18:37:03.076Z,25.40
2023-02-05T18:39:29.725Z,25.00
2023-02-05T18:41:57.527Z,20.07
2023-02-05T18:44:25.002Z,20.10
2023-02-05T18:46:51.796Z,22.17
2023-02-05T18:49:18.597Z,24.30
2023-02-05T18:51:45.202Z,21.63
2023-02-05T18:54:11.595Z,20.90
2023-02-05T18:56:38.593Z,31.23
2023-02-05T18:59:07.421Z,26.23
2023-02-05T19:01:36.543Z,23.63
2023-02-05T19:04:06.201Z,24.10
2023-02-05T19:06:33.117Z,20.80
2023-02-05T19:09:00.531Z,17.63
2023-02-05T19:11:28.384Z,22.03
2023-02-05T19:14:03.610Z,16.63
2023-02-05T19:16:32.291Z,15.37
2023-02-05T19:18:59.106Z,20.63
2023-02-05T19:21:30.600Z,18.17
2023-02-05T19:23:59.622Z,22.90
2023-02-05T19:26:28.968Z,18.70
2023-02-05T19:28:57.631Z,24.57
2023-02-05T19:31:26.645Z,19.63
2023-02-05T19:33:53.189Z,23.10
2023-02-05T19:36:23.052Z,23.63
2023-02-05T19:38:49.814Z,23.20
2023-02-05T19:41:21.803Z,22.97
2023-02-05T19:43:57.713Z,24.20
2023-02-05T19:46:27.857Z,19.23
2023-02-05T19:48:56.157Z,19.30
2023-02-05T19:51:22.835Z,20.37
2023-02-05T19:53:49.415Z,33.40
2023-02-05T19:56:21.190Z,26.93
2023-02-05T19:58:50.625Z,25.30
2023-02-05T20:01:28.890Z,25.10
2023-02-05T20:03:58.633Z,23.00
2023-02-05T20:06:27.711Z,25.90
2023-02-05T20:08:54.172Z,27.80
2023-02-05T20:11:20.639Z,30.13
2023-02-05T20:13:47.555Z,25.57
2023-02-05T20:16:18.813Z,25.93
2023-02-05T20:18:46.817Z,27.20
2023-02-05T20:21:16.927Z,31.97
2023-02-05T20:23:43.384Z,21.70
2023-02-05T20:26:10.612Z,25.93
2023-02-05T20:29:00.521Z,28.60
2023-02-05T20:31:34.989Z,26.47
2023-02-05T20:34:03.646Z,16.60
2023-02-05T20:36:31.710Z,18.93
2023-02-05T20:39:00.108Z,26.83
2023-02-05T20:41:27.344Z,23.63
2023-02-05T20:43:54.546Z,20.40
2023-02-05T20:46:21.073Z,22.17
2023-02-05T20:48:48.422Z,16.60
2023-02-05T20:51:17.333Z,18.53
2023-02-05T20:53:44.553Z,15.87
2023-02-05T20:56:16.720Z,16.77
2023-02-05T20:58:43.804Z,31.90
2023-02-05T21:01:13.665Z,23.97
2023-02-05T21:03:43.664Z,14.00
2023-02-05T21:06:10.984Z,11.67
2023-02-05T21:08:39.136Z,14.23
2023-02-05T21:11:06.226Z,11.47
2023-02-05T21:13:33.321Z,14.30
2023-02-05T21:16:00.824Z,10.40
2023-02-05T21:18:29.151Z,13.90
2023-02-05T21:21:04.436Z,12.23
2023-02-05T21:23:30.871Z,11.00
2023-02-05T21:25:57.255Z,11.70
2023-02-05T21:28:23.848Z,12.23
2023-02-05T21:30:51.104Z,14.43
2023-02-05T21:33:18.456Z,18.67
2023-02-05T21:35:44.912Z,15.90
2023-02-05T21:38:11.322Z,11.90
2023-02-05T21:40:38.775Z,15.60
2023-02-05T21:43:05.231Z,14.30
2023-02-05T21:45:31.684Z,14.50
2023-02-05T21:47:58.083Z,13.90
2023-02-05T21:50:24.486Z,16.00
2023-02-05T21:52:50.874Z,15.40
2023-02-05T21:55:17.437Z,16.43
2023-02-05T21:57:43.847Z,14.70
2023-02-05T22:00:11.098Z,16.60
2023-02-05T22:02:40.478Z,12.30
2023-02-05T22:05:07.490Z,15.50
2023-02-05T22:07:34.122Z,15.13
2023-02-05T22:10:00.576Z,17.47
2023-02-05T22:12:26.967Z,17.57
2023-02-05T22:14:53.379Z,16.73
2023-02-05T22:17:19.771Z,13.40
2023-02-05T22:19:46.207Z,13.70
2023-02-05T22:22:12.621Z,12.00
2023-02-05T22:24:39.030Z,13.80
2023-02-05T22:27:05.424Z,12.53
2023-02-05T22:29:31.977Z,15.00
2023-02-05T22:31:58.431Z,10.57
2023-02-05T22:34:25.069Z,13.17
2023-02-05T22:36:51.498Z,13.33
2023-02-05T22:39:17.934Z,11.33
2023-02-05T22:41:44.387Z,10.17
2023-02-05T22:44:11.744Z,12.47
2023-02-05T22:46:40.856Z,8.90
2023-02-05T22:49:07.528Z,11.47
2023-02-05T22:51:37.712Z,11.87
2023-02-05T22:54:05.766Z,10.70
2023-02-05T22:56:32.582Z,9.47
2023-02-05T22:59:01.977Z,10.90
2023-02-05T23:01:32.479Z,12.00
2023-02-05T23:04:01.265Z,10.60
2023-02-05T23:06:30.953Z,9.70
2023-02-05T23:09:03.609Z,10.37
2023-02-05T23:11:31.648Z,10.23
2023-02-05T23:13:59.108Z,17.60
2023-02-05T23:16:28.200Z,11.77
2023-02-05T23:19:00.585Z,10.10
2023-02-05T23:21:29.192Z,11.63
2023-02-05T23:23:56.061Z,12.60
2023-02-05T23:26:25.333Z,9.17
2023-02-05T23:28:53.673Z,10.63
2023-02-05T23:31:21.013Z,8.90
2023-02-05T23:33:47.704Z,9.47
2023-02-05T23:36:14.294Z,10.90
2023-02-05T23:38:41.111Z,9.90
2023-02-05T23:41:08.011Z,12.83
2023-02-05T23:43:36.352Z,14.70
2023-02-05T23:46:04.039Z,9.50
2023-02-05T23:48:30.589Z,11.03
2023-02-05T23:50:57.231Z,10.27
2023-02-05T23:53:24.566Z,9.27
2023-02-05T23:55:52.595Z,11.20
2023-02-05T23:58:20.914Z,11.40
